createdAt,value
2018-01-25T00:01:46.520Z,8.70
2018-01-25T00:04:14.792Z,7.30
2018-01-25T00:06:43.071Z,5.70
2018-01-25T00:09:11.447Z,6.43
2018-01-25T00:11:40.427Z,7.33
2018-01-25T00:14:08.824Z,7.80
2018-01-25T00:16:37.103Z,9.43
2018-01-25T00:19:05.483Z,6.73
2018-01-25T00:21:33.759Z,7.13
2018-01-25T00:24:02.136Z,5.80
2018-01-25T00:26:30.547Z,5.77
2018-01-25T00:28:59.618Z,5.63
2018-01-25T00:31:29.396Z,7.63
2018-01-25T00:33:58.044Z,5.70
2018-01-25T00:36:26.387Z,6.13
2018-01-25T00:38:55.452Z,4.93
2018-01-25T00:41:23.762Z,5.60
2018-01-25T00:43:52.227Z,6.10
2018-01-25T00:46:20.501Z,7.73
2018-01-25T00:48:48.816Z,5.20
2018-01-25T00:51:17.899Z,7.00
2018-01-25T00:53:46.194Z,6.57
2018-01-25T00:56:15.252Z,5.27
2018-01-25T00:58:43.533Z,4.80
2018-01-25T01:01:11.829Z,5.37
2018-01-25T01:03:40.204Z,6.03
2018-01-25T01:06:08.579Z,5.00
2018-01-25T01:08:36.855Z,5.17
2018-01-25T01:11:05.152Z,5.27
2018-01-25T01:13:34.197Z,4.47
2018-01-25T01:16:02.502Z,4.80
2018-01-25T01:18:30.775Z,4.43
2018-01-25T01:20:59.069Z,4.10
2018-01-25T01:23:27.343Z,5.87
2018-01-25T01:25:55.728Z,5.03
2018-01-25T01:28:24.031Z,5.37
2018-01-25T01:30:52.307Z,4.80
2018-01-25T01:33:20.644Z,5.40
2018-01-25T01:35:49.688Z,4.77
2018-01-25T01:38:17.986Z,5.10
2018-01-25T01:40:46.307Z,4.27
2018-01-25T01:43:14.591Z,7.00
2018-01-25T01:45:42.868Z,4.03
2018-01-25T01:48:11.167Z,4.73
2018-01-25T01:50:40.210Z,6.40
2018-01-25T01:53:08.520Z,5.70
2018-01-25T01:55:40.405Z,7.97
2018-01-25T01:58:08.748Z,4.90
2018-01-25T02:00:37.232Z,4.60
2018-01-25T02:03:06.292Z,4.27
2018-01-25T02:05:34.576Z,5.80
2018-01-25T02:08:02.868Z,4.60
2018-01-25T02:10:31.147Z,4.10
2018-01-25T02:13:01.055Z,4.37
2018-01-25T02:15:29.347Z,3.23
2018-01-25T02:17:57.725Z,4.00
2018-01-25T02:20:26.004Z,6.90
2018-01-25T02:22:54.320Z,4.43
2018-01-25T02:25:23.377Z,4.67
2018-01-25T02:27:53.172Z,4.47
2018-01-25T02:30:21.555Z,3.70
2018-01-25T02:32:49.831Z,3.53
2018-01-25T02:35:18.143Z,4.73
2018-01-25T02:37:46.394Z,4.00
2018-01-25T02:40:14.669Z,2.80
2018-01-25T02:42:42.923Z,3.40
2018-01-25T02:45:11.316Z,3.47
2018-01-25T02:47:39.561Z,4.20
2018-01-25T02:50:07.844Z,4.30
2018-01-25T02:52:36.146Z,5.70
2018-01-25T02:55:04.441Z,3.00
2018-01-25T02:57:32.701Z,3.03
2018-01-25T03:00:01.086Z,3.07
2018-01-25T03:02:29.355Z,3.63
2018-01-25T03:04:57.743Z,2.80
2018-01-25T03:07:25.999Z,3.30
2018-01-25T03:09:54.390Z,3.43
2018-01-25T03:12:22.665Z,4.20
2018-01-25T03:14:50.923Z,2.83
2018-01-25T03:17:19.198Z,2.97
2018-01-25T03:19:47.460Z,3.37
2018-01-25T03:22:15.733Z,5.20
2018-01-25T03:24:44.012Z,3.50
2018-01-25T03:27:12.334Z,2.60
2018-01-25T03:29:40.598Z,3.50
2018-01-25T03:32:08.940Z,3.70
2018-01-25T03:34:37.283Z,3.90
2018-01-25T03:37:05.552Z,3.80
2018-01-25T03:39:33.806Z,3.20
2018-01-25T03:42:02.084Z,3.50
2018-01-25T03:44:30.348Z,3.47
2018-01-25T03:46:58.623Z,2.90
2018-01-25T03:49:26.921Z,2.60
2018-01-25T03:51:55.301Z,3.40
2018-01-25T03:54:23.583Z,2.80
2018-01-25T03:56:51.852Z,3.17
2018-01-25T03:59:20.142Z,3.87
2018-01-25T04:01:48.416Z,3.10
2018-01-25T04:04:16.901Z,2.70
2018-01-25T04:06:45.152Z,3.60
2018-01-25T04:09:13.419Z,5.87
2018-01-25T04:11:41.729Z,3.43
2018-01-25T04:14:10.002Z,4.40
2018-01-25T04:16:38.255Z,3.17
2018-01-25T04:19:06.663Z,4.10
2018-01-25T04:21:34.908Z,3.73
2018-01-25T04:24:03.196Z,3.27
2018-01-25T04:26:31.495Z,3.10
2018-01-25T04:28:59.763Z,5.60
2018-01-25T04:31:28.025Z,2.97
2018-01-25T04:33:56.322Z,3.00
2018-01-25T04:36:24.571Z,3.33
2018-01-25T04:38:52.848Z,6.57
2018-01-25T04:41:21.259Z,4.47
2018-01-25T04:43:49.520Z,8.67
2018-01-25T04:46:17.780Z,2.93
2018-01-25T04:48:46.055Z,6.80
2018-01-25T04:51:14.467Z,3.93
2018-01-25T04:53:42.744Z,3.20
2018-01-25T04:56:11.003Z,2.80
2018-01-25T04:58:39.347Z,2.83
2018-01-25T05:01:07.720Z,3.37
2018-01-25T05:03:35.983Z,3.13
2018-01-25T05:06:04.271Z,2.70
2018-01-25T05:08:32.563Z,5.63
2018-01-25T05:11:00.943Z,2.50
2018-01-25T05:13:29.204Z,3.90
2018-01-25T05:15:57.493Z,3.13
2018-01-25T05:18:25.732Z,2.83
2018-01-25T05:20:54.010Z,2.70
2018-01-25T05:23:22.269Z,2.60
2018-01-25T05:25:51.315Z,3.23
2018-01-25T05:28:19.563Z,3.40
2018-01-25T05:30:47.876Z,3.87
2018-01-25T05:33:16.123Z,2.70
2018-01-25T05:35:44.412Z,5.07
2018-01-25T05:38:12.672Z,4.10
2018-01-25T05:40:40.935Z,2.73
2018-01-25T05:43:09.231Z,2.97
2018-01-25T05:45:37.492Z,3.53
2018-01-25T05:48:05.789Z,3.37
2018-01-25T05:50:34.048Z,3.20
2018-01-25T05:53:02.323Z,3.83
2018-01-25T05:55:30.587Z,3.30
2018-01-25T05:57:59.739Z,2.33
2018-01-25T06:00:27.999Z,4.60
2018-01-25T06:02:56.294Z,4.80
2018-01-25T06:05:24.543Z,3.20
2018-01-25T06:07:52.853Z,2.20
2018-01-25T06:10:21.108Z,3.47
2018-01-25T06:12:49.396Z,3.00
2018-01-25T06:15:17.656Z,2.37
2018-01-25T06:17:45.958Z,3.40
2018-01-25T06:20:14.236Z,3.33
2018-01-25T06:22:42.519Z,3.70
2018-01-25T06:25:10.903Z,2.93
2018-01-25T06:27:40.702Z,2.30
2018-01-25T06:30:08.964Z,3.30
2018-01-25T06:32:37.222Z,2.20
2018-01-25T06:35:05.494Z,2.93
2018-01-25T06:37:33.753Z,4.57
2018-01-25T06:40:02.804Z,4.20
2018-01-25T06:42:31.061Z,7.10
2018-01-25T06:44:59.463Z,2.20
2018-01-25T06:47:27.705Z,3.20
2018-01-25T06:49:55.984Z,3.03
2018-01-25T06:52:24.240Z,2.30
2018-01-25T06:54:52.562Z,3.10
2018-01-25T06:57:20.835Z,2.90
2018-01-25T06:59:49.125Z,4.33
2018-01-25T07:02:17.497Z,4.20
2018-01-25T07:04:45.772Z,2.73
2018-01-25T07:07:14.047Z,3.93
2018-01-25T07:09:42.321Z,3.10
2018-01-25T07:12:10.639Z,7.63
2018-01-25T07:14:38.888Z,2.77
2018-01-25T07:17:07.156Z,3.10
2018-01-25T07:19:35.413Z,2.63
2018-01-25T07:22:03.689Z,2.73
2018-01-25T07:24:31.949Z,3.20
2018-01-25T07:27:00.233Z,2.40
2018-01-25T07:29:28.569Z,2.20
2018-01-25T07:31:57.647Z,3.20
2018-01-25T07:34:25.897Z,13.17
2018-01-25T07:36:54.202Z,3.70
2018-01-25T07:39:22.451Z,2.70
2018-01-25T07:41:50.760Z,2.57
2018-01-25T07:44:19.134Z,5.73
2018-01-25T07:46:47.617Z,2.97
2018-01-25T07:49:15.924Z,1.97
2018-01-25T07:51:44.172Z,2.90
2018-01-25T07:54:12.550Z,3.43
2018-01-25T07:56:40.796Z,2.53
2018-01-25T07:59:09.105Z,2.70
2018-01-25T08:01:37.380Z,4.60
2018-01-25T08:04:05.647Z,4.27
2018-01-25T08:06:33.904Z,2.97
2018-01-25T08:09:02.187Z,4.70
2018-01-25T08:11:31.103Z,6.90
2018-01-25T08:13:59.363Z,5.50
2018-01-25T08:16:33.271Z,4.20
2018-01-25T08:19:01.528Z,5.00
2018-01-25T08:21:29.796Z,4.97
2018-01-25T08:23:58.055Z,4.90
2018-01-25T08:26:27.112Z,6.57
2018-01-25T08:28:55.364Z,7.43
2018-01-25T08:31:23.655Z,4.30
2018-01-25T08:33:51.907Z,3.87
2018-01-25T08:36:20.182Z,7.27
2018-01-25T08:38:49.251Z,3.70
2018-01-25T08:41:18.287Z,4.03
2018-01-25T08:43:46.542Z,4.77
2018-01-25T08:46:14.829Z,3.70
2018-01-25T08:48:43.096Z,2.73
2018-01-25T08:51:12.240Z,3.40
2018-01-25T08:53:40.488Z,2.53
2018-01-25T08:56:08.756Z,2.17
2018-01-25T08:58:37.015Z,1.43
2018-01-25T09:01:05.312Z,8.27
2018-01-25T09:03:33.571Z,1.93
2018-01-25T09:06:01.879Z,3.20
2018-01-25T09:08:30.154Z,2.00
2018-01-25T09:10:59.276Z,1.83
2018-01-25T09:13:27.736Z,0.73
2018-01-25T09:15:55.976Z,1.00
2018-01-25T09:18:24.256Z,1.13
2018-01-25T09:20:52.515Z,1.10
2018-01-25T09:23:20.843Z,1.63
2018-01-25T09:25:49.240Z,1.13
2018-01-25T09:28:17.600Z,1.30
2018-01-25T09:30:46.363Z,1.60
2018-01-25T09:33:14.636Z,0.70
2018-01-25T09:35:42.948Z,0.93
2018-01-25T09:38:11.323Z,0.93
2018-01-25T09:40:39.580Z,1.43
2018-01-25T09:43:07.868Z,0.80
2018-01-25T09:45:36.129Z,1.00
2018-01-25T09:48:04.429Z,1.03
2018-01-25T09:50:32.715Z,2.30
2018-01-25T09:53:00.971Z,1.47
2018-01-25T09:55:29.256Z,1.47
2018-01-25T09:57:57.504Z,1.53
2018-01-25T10:00:25.788Z,1.13
2018-01-25T10:02:54.044Z,1.20
2018-01-25T10:05:22.364Z,0.90
2018-01-25T10:07:50.635Z,1.17
2018-01-25T10:10:18.932Z,1.20
2018-01-25T10:12:47.188Z,1.40
2018-01-25T10:15:15.463Z,1.30
2018-01-25T10:17:43.857Z,1.23
2018-01-25T10:20:12.160Z,1.20
2018-01-25T10:22:40.417Z,1.57
2018-01-25T10:25:08.683Z,1.57
2018-01-25T10:27:37.170Z,2.17
2018-01-25T10:30:05.408Z,1.23
2018-01-25T10:32:33.681Z,2.30
2018-01-25T10:35:01.963Z,1.77
2018-01-25T10:37:30.342Z,1.37
2018-01-25T10:39:58.583Z,1.40
2018-01-25T10:42:26.865Z,1.20
2018-01-25T10:44:55.125Z,1.27
2018-01-25T10:47:24.166Z,2.53
2018-01-25T10:49:52.414Z,1.23
2018-01-25T10:52:20.691Z,2.80
2018-01-25T10:54:48.943Z,1.00
2018-01-25T10:57:17.980Z,4.63
2018-01-25T10:59:46.268Z,1.97
2018-01-25T11:02:14.545Z,1.43
2018-01-25T11:04:42.832Z,1.47
2018-01-25T11:07:11.103Z,1.73
2018-01-25T11:09:39.404Z,1.37
2018-01-25T11:12:07.865Z,3.33
2018-01-25T11:14:36.107Z,1.90
2018-01-25T11:17:04.404Z,2.07
2018-01-25T11:19:32.660Z,1.33
2018-01-25T11:22:00.924Z,1.30
2018-01-25T11:24:29.204Z,1.80
2018-01-25T11:26:57.457Z,1.40
2018-01-25T11:29:26.503Z,1.93
2018-01-25T11:31:54.763Z,2.40
2018-01-25T11:34:23.035Z,1.50
2018-01-25T11:36:51.301Z,2.10
2018-01-25T11:39:19.575Z,2.87
2018-01-25T11:41:47.908Z,1.40
2018-01-25T11:44:16.176Z,1.30
2018-01-25T11:46:44.453Z,1.40
2018-01-25T11:49:12.731Z,1.70
2018-01-25T11:51:40.987Z,3.70
2018-01-25T11:54:09.239Z,2.30
2018-01-25T11:56:37.511Z,2.20
2018-01-25T11:59:05.779Z,2.00
2018-01-25T12:01:34.820Z,2.13
2018-01-25T12:04:03.093Z,4.10
2018-01-25T12:06:31.364Z,2.33
2018-01-25T12:08:59.620Z,2.10
2018-01-25T12:11:27.895Z,1.73
2018-01-25T12:13:56.156Z,3.90
2018-01-25T12:16:25.476Z,1.63
2018-01-25T12:18:53.815Z,1.93
2018-01-25T12:21:22.065Z,1.97
2018-01-25T12:23:50.335Z,2.40
2018-01-25T12:26:18.631Z,2.10
2018-01-25T12:28:46.904Z,1.90
2018-01-25T12:31:16.049Z,2.10
2018-01-25T12:33:45.156Z,1.77
2018-01-25T12:36:13.472Z,2.07
2018-01-25T12:38:41.749Z,4.30
2018-01-25T12:41:10.023Z,5.10
2018-01-25T12:43:38.405Z,2.43
2018-01-25T12:46:06.673Z,1.37
2018-01-25T12:48:34.955Z,2.23
2018-01-25T12:51:03.236Z,2.37
2018-01-25T12:53:31.502Z,3.30
2018-01-25T12:55:59.777Z,2.83
2018-01-25T12:58:28.116Z,2.13
2018-01-25T13:00:56.792Z,5.43
2018-01-25T13:03:25.152Z,2.70
2018-01-25T13:05:54.956Z,3.50
2018-01-25T13:08:23.216Z,2.57
2018-01-25T13:10:51.479Z,2.63
2018-01-25T13:13:19.757Z,1.93
2018-01-25T13:15:48.012Z,2.33
2018-01-25T13:18:16.336Z,2.87
2018-01-25T13:20:44.608Z,2.20
2018-01-25T13:23:12.975Z,2.60
2018-01-25T13:25:41.270Z,2.80
2018-01-25T13:28:09.668Z,2.27
2018-01-25T13:30:37.926Z,3.03
2018-01-25T13:33:11.875Z,2.70
2018-01-25T13:35:40.917Z,2.70
2018-01-25T13:38:10.110Z,3.43
2018-01-25T13:40:38.399Z,4.43
2018-01-25T13:43:06.675Z,2.70
2018-01-25T13:45:34.931Z,3.90
2018-01-25T13:48:03.194Z,3.07
2018-01-25T13:50:31.491Z,2.90
2018-01-25T13:52:59.740Z,3.43
2018-01-25T13:55:28.776Z,2.83
2018-01-25T13:57:57.036Z,2.07
2018-01-25T14:00:25.341Z,2.33
2018-01-25T14:02:53.603Z,2.33
2018-01-25T14:05:21.867Z,2.97
2018-01-25T14:07:50.123Z,2.80
2018-01-25T14:10:19.377Z,2.40
2018-01-25T14:12:47.644Z,3.43
2018-01-25T14:15:15.911Z,2.20
2018-01-25T14:17:44.175Z,2.53
2018-01-25T14:20:12.468Z,2.10
2018-01-25T14:22:40.712Z,2.93
2018-01-25T14:25:09.029Z,3.10
2018-01-25T14:27:37.409Z,2.43
2018-01-25T14:30:05.664Z,2.50
2018-01-25T14:32:33.931Z,4.13
2018-01-25T14:35:02.194Z,5.33
2018-01-25T14:37:31.233Z,2.93
2018-01-25T14:39:59.483Z,3.20
2018-01-25T14:42:27.787Z,3.47
2018-01-25T14:44:56.055Z,3.30
2018-01-25T14:47:24.348Z,3.67
2018-01-25T14:49:52.602Z,2.40
2018-01-25T14:52:20.875Z,2.10
2018-01-25T14:54:49.172Z,3.40
2018-01-25T14:57:17.454Z,2.60
2018-01-25T14:59:45.728Z,3.83
2018-01-25T15:02:14.014Z,3.70
2018-01-25T15:04:42.260Z,4.60
2018-01-25T15:07:10.539Z,2.77
2018-01-25T15:09:38.853Z,4.77
2018-01-25T15:12:07.137Z,2.80
2018-01-25T15:14:35.400Z,2.60
2018-01-25T15:17:03.655Z,4.37
2018-01-25T15:19:31.949Z,3.47
2018-01-25T15:22:00.200Z,2.87
2018-01-25T15:24:28.500Z,3.50
2018-01-25T15:26:56.780Z,4.17
2018-01-25T15:29:25.265Z,3.90
2018-01-25T15:31:53.507Z,7.03
2018-01-25T15:34:21.791Z,5.17
2018-01-25T15:36:50.063Z,4.07
2018-01-25T15:39:18.376Z,5.70
2018-01-25T15:41:46.627Z,7.20
2018-01-25T15:44:14.926Z,3.57
2018-01-25T15:46:43.201Z,5.97
2018-01-25T15:49:11.582Z,4.30
2018-01-25T15:51:39.859Z,3.20
2018-01-25T15:54:08.109Z,3.87
2018-01-25T15:56:36.403Z,5.60
2018-01-25T15:59:04.690Z,5.80
2018-01-25T16:01:33.173Z,4.63
2018-01-25T16:04:01.554Z,6.37
2018-01-25T16:06:29.811Z,5.37
2018-01-25T16:08:58.084Z,7.00
2018-01-25T16:11:26.371Z,4.90
2018-01-25T16:13:55.435Z,7.23
2018-01-25T16:16:23.755Z,4.40
2018-01-25T16:18:52.032Z,5.53
2018-01-25T16:21:20.297Z,4.13
2018-01-25T16:23:48.555Z,6.17
2018-01-25T16:26:16.836Z,6.37
2018-01-25T16:28:45.091Z,7.77
2018-01-25T16:31:13.387Z,5.63
2018-01-25T16:33:42.718Z,3.80
2018-01-25T16:36:11.009Z,5.23
2018-01-25T16:38:40.058Z,12.67
2018-01-25T16:41:08.312Z,5.30
2018-01-25T16:43:37.456Z,6.03
2018-01-25T16:46:05.721Z,6.13
2018-01-25T16:48:34.025Z,6.87
2018-01-25T16:51:02.296Z,6.57
2018-01-25T16:53:30.571Z,5.43
2018-01-25T16:55:58.839Z,5.90
2018-01-25T16:58:27.125Z,5.30
2018-01-25T17:00:55.506Z,5.40
2018-01-25T17:03:23.744Z,5.80
2018-01-25T17:05:52.024Z,6.13
2018-01-25T17:08:20.344Z,6.47
2018-01-25T17:10:48.779Z,6.07
2018-01-25T17:13:17.039Z,6.73
2018-01-25T17:15:46.090Z,6.60
2018-01-25T17:18:14.470Z,6.60
2018-01-25T17:20:42.726Z,5.23
2018-01-25T17:23:11.128Z,6.93
2018-01-25T17:25:40.320Z,9.83
2018-01-25T17:28:08.586Z,8.60
2018-01-25T17:30:36.884Z,5.63
2018-01-25T17:33:05.157Z,7.80
2018-01-25T17:35:33.548Z,5.10
2018-01-25T17:38:01.914Z,5.80
2018-01-25T17:40:30.181Z,6.67
2018-01-25T17:42:58.451Z,4.87
2018-01-25T17:45:26.719Z,3.80
2018-01-25T17:47:55.380Z,4.90
2018-01-25T17:50:23.643Z,13.80
2018-01-25T17:52:52.704Z,7.07
2018-01-25T17:55:20.963Z,5.20
2018-01-25T17:57:49.269Z,7.23
2018-01-25T18:00:18.371Z,8.47
2018-01-25T18:02:46.660Z,4.83
2018-01-25T18:05:14.924Z,8.10
2018-01-25T18:07:43.302Z,7.27
2018-01-25T18:10:11.770Z,7.13
2018-01-25T18:12:40.154Z,8.27
2018-01-25T18:15:08.401Z,6.30
2018-01-25T18:17:36.701Z,8.63
2018-01-25T18:20:04.979Z,6.40
2018-01-25T18:22:33.232Z,7.40
2018-01-25T18:25:01.512Z,7.53
2018-01-25T18:27:30.532Z,7.90
2018-01-25T18:29:59.012Z,6.00
2018-01-25T18:32:27.268Z,5.70
2018-01-25T18:34:55.667Z,5.70
2018-01-25T18:37:23.911Z,8.80
2018-01-25T18:39:52.187Z,4.97
2018-01-25T18:42:20.603Z,4.47
2018-01-25T18:44:48.988Z,4.70
2018-01-25T18:47:17.227Z,6.70
2018-01-25T18:49:45.503Z,5.27
2018-01-25T18:52:13.810Z,5.90
2018-01-25T18:54:42.077Z,6.63
2018-01-25T18:57:10.334Z,4.87
2018-01-25T18:59:38.636Z,5.10
2018-01-25T19:02:06.910Z,5.13
2018-01-25T19:04:35.189Z,4.90
2018-01-25T19:07:03.552Z,5.47
2018-01-25T19:09:31.814Z,9.20
2018-01-25T19:12:00.107Z,8.37
2018-01-25T19:14:28.352Z,8.77
2018-01-25T19:16:57.400Z,4.93
2018-01-25T19:19:25.664Z,5.77
2018-01-25T19:21:53.938Z,4.30
2018-01-25T19:24:22.191Z,5.83
2018-01-25T19:26:50.507Z,7.07
2018-01-25T19:29:18.940Z,4.73
2018-01-25T19:31:47.291Z,4.87
2018-01-25T19:34:15.544Z,6.23
2018-01-25T19:36:43.927Z,6.23
2018-01-25T19:39:12.183Z,6.43
2018-01-25T19:41:40.464Z,4.00
2018-01-25T19:44:08.724Z,4.43
2018-01-25T19:46:37.948Z,11.17
2018-01-25T19:49:06.239Z,7.43
2018-01-25T19:51:34.634Z,12.17
2018-01-25T19:54:03.091Z,7.37
2018-01-25T19:56:31.336Z,5.80
2018-01-25T19:58:59.617Z,5.20
2018-01-25T20:01:27.874Z,6.73
2018-01-25T20:03:56.160Z,6.30
2018-01-25T20:06:24.421Z,8.20
2018-01-25T20:08:53.573Z,6.10
2018-01-25T20:11:21.849Z,5.40
2018-01-25T20:13:50.121Z,7.33
2018-01-25T20:16:18.404Z,5.93
2018-01-25T20:18:46.703Z,7.10
2018-01-25T20:21:14.957Z,6.30
2018-01-25T20:23:43.447Z,17.83
2018-01-25T20:26:11.718Z,11.83
2018-01-25T20:28:39.988Z,8.07
2018-01-25T20:31:08.287Z,8.33
2018-01-25T20:33:37.475Z,5.20
2018-01-25T20:36:05.748Z,5.60
2018-01-25T20:38:34.027Z,6.03
2018-01-25T20:41:02.300Z,6.10
2018-01-25T20:43:30.559Z,8.20
2018-01-25T20:45:58.866Z,7.40
2018-01-25T20:48:27.149Z,7.20
2018-01-25T20:50:55.528Z,7.67
2018-01-25T20:53:24.655Z,8.10
2018-01-25T20:55:54.524Z,8.87
2018-01-25T20:58:22.803Z,18.40
2018-01-25T21:00:51.072Z,8.73
2018-01-25T21:03:19.332Z,10.47
2018-01-25T21:05:47.599Z,9.23
2018-01-25T21:08:15.904Z,6.97
2018-01-25T21:10:44.200Z,7.73
2018-01-25T21:13:12.464Z,6.40
2018-01-25T21:15:40.708Z,8.60
2018-01-25T21:18:09.007Z,10.97
2018-01-25T21:20:37.271Z,46.13
2018-01-25T21:23:05.562Z,17.80
2018-01-25T21:25:33.823Z,17.07
2018-01-25T21:28:02.136Z,13.90
2018-01-25T21:30:30.408Z,10.27
2018-01-25T21:32:58.692Z,11.77
2018-01-25T21:35:26.970Z,11.30
2018-01-25T21:37:55.233Z,9.50
2018-01-25T21:40:23.505Z,14.57
2018-01-25T21:42:51.823Z,38.07
2018-01-25T21:45:20.274Z,18.23
2018-01-25T21:47:48.663Z,16.77
2018-01-25T21:50:16.936Z,17.17
2018-01-25T21:52:45.197Z,18.77
2018-01-25T21:55:13.495Z,13.83
2018-01-25T21:57:41.761Z,17.20
2018-01-25T22:00:10.140Z,19.07
2018-01-25T22:02:38.407Z,20.23
2018-01-25T22:05:06.693Z,17.57
2018-01-25T22:07:34.972Z,19.90
2018-01-25T22:10:03.256Z,15.10
2018-01-25T22:12:31.536Z,14.63
2018-01-25T22:14:59.824Z,16.30
2018-01-25T22:17:28.091Z,16.50
2018-01-25T22:19:56.461Z,17.67
2018-01-25T22:22:24.721Z,16.10
2018-01-25T22:24:53.113Z,15.10
2018-01-25T22:27:21.390Z,17.03
2018-01-25T22:29:49.662Z,15.03
2018-01-25T22:32:17.945Z,16.30
2018-01-25T22:34:46.211Z,16.10
2018-01-25T22:37:14.504Z,18.33
2018-01-25T22:39:42.768Z,32.40
2018-01-25T22:42:11.053Z,25.50
2018-01-25T22:44:39.441Z,15.07
2018-01-25T22:47:07.721Z,15.73
2018-01-25T22:49:36.096Z,13.07
2018-01-25T22:52:04.386Z,20.37
2018-01-25T22:54:32.651Z,16.63
2018-01-25T22:57:00.932Z,15.30
2018-01-25T22:59:29.309Z,17.07
2018-01-25T23:01:57.600Z,15.30
2018-01-25T23:04:25.877Z,17.03
2018-01-25T23:06:54.143Z,21.73
2018-01-25T23:09:22.433Z,16.50
2018-01-25T23:11:50.696Z,13.03
2018-01-25T23:14:18.981Z,17.63
2018-01-25T23:16:47.253Z,16.97
2018-01-25T23:19:15.536Z,17.60
2018-01-25T23:21:43.892Z,19.43
2018-01-25T23:24:12.272Z,17.57
2018-01-25T23:26:40.535Z,18.37
2018-01-25T23:29:08.930Z,16.93
2018-01-25T23:31:37.331Z,19.33
2018-01-25T23:34:05.602Z,18.20
2018-01-25T23:36:34.072Z,17.43
2018-01-25T23:39:02.454Z,18.97
2018-01-25T23:41:30.723Z,23.23
2018-01-25T23:43:58.992Z,16.80
2018-01-25T23:46:27.281Z,17.73
2018-01-25T23:48:55.656Z,20.77
2018-01-25T23:51:23.939Z,17.10
2018-01-25T23:53:52.317Z,19.53
2018-01-25T23:56:20.619Z,20.60
2018-01-25T23:58:49.487Z,18.27
